sensor_id;sensor_type;location;lat;lon;timestamp;temperature;humidity
41344;DHT22;27089;50.022;7.604;2023-03-18T00:01:47;9.80;99.90
41344;DHT22;27089;50.022;7.604;2023-03-18T00:04:14;9.80;99.90
41344;DHT22;27089;50.022;7.604;2023-03-18T00:06:42;9.80;99.90
41344;DHT22;27089;50.022;7.604;2023-03-18T00:09:09;9.80;99.90
41344;DHT22;27089;50.022;7.604;2023-03-18T00:11:38;9.70;99.90
41344;DHT22;27089;50.022;7.604;2023-03-18T00:14:07;9.70;99.90
41344;DHT22;27089;50.022;7.604;2023-03-18T00:16:34;9.70;99.90
41344;DHT22;27089;50.022;7.604;2023-03-18T00:19:01;9.70;99.90
41344;DHT22;27089;50.022;7.604;2023-03-18T00:21:28;9.70;99.90
41344;DHT22;27089;50.022;7.604;2023-03-18T00:23:56;9.80;99.90
41344;DHT22;27089;50.022;7.604;2023-03-18T00:26:24;9.80;99.90
41344;DHT22;27089;50.022;7.604;2023-03-18T00:28:52;9.80;99.90
41344;DHT22;27089;50.022;7.604;2023-03-18T00:31:20;9.80;99.90
41344;DHT22;27089;50.022;7.604;2023-03-18T00:33:47;9.80;99.90
41344;DHT22;27089;50.022;7.604;2023-03-18T00:36:15;9.80;99.90
41344;DHT22;27089;50.022;7.604;2023-03-18T00:38:44;9.80;99.90
41344;DHT22;27089;50.022;7.604;2023-03-18T00:41:15;9.80;99.90
41344;DHT22;27089;50.022;7.604;2023-03-18T00:43:45;9.70;99.90
41344;DHT22;27089;50.022;7.604;2023-03-18T00:46:18;9.70;99.90
41344;DHT22;27089;50.022;7.604;2023-03-18T00:48:47;9.70;99.90
41344;DHT22;27089;50.022;7.604;2023-03-18T00:51:14;9.70;99.90
41344;DHT22;27089;50.022;7.604;2023-03-18T00:53:43;9.70;99.90
41344;DHT22;27089;50.022;7.604;2023-03-18T00:56:11;9.60;99.90
41344;DHT22;27089;50.022;7.604;2023-03-18T00:58:38;9.60;99.90
41344;DHT22;27089;50.022;7.604;2023-03-18T01:01:07;9.50;99.90
41344;DHT22;27089;50.022;7.604;2023-03-18T01:03:34;9.50;99.90
41344;DHT22;27089;50.022;7.604;2023-03-18T01:06:03;9.50;99.90
41344;DHT22;27089;50.022;7.604;2023-03-18T01:08:30;9.50;99.90
41344;DHT22;27089;50.022;7.604;2023-03-18T01:10:58;9.50;99.90
41344;DHT22;27089;50.022;7.604;2023-03-18T01:13:25;9.50;99.90
41344;DHT22;27089;50.022;7.604;2023-03-18T01:15:53;9.50;99.90
41344;DHT22;27089;50.022;7.604;2023-03-18T01:18:21;9.60;99.90
41344;DHT22;27089;50.022;7.604;2023-03-18T01:20:48;9.60;99.90
41344;DHT22;27089;50.022;7.604;2023-03-18T01:23:17;9.60;99.90
41344;DHT22;27089;50.022;7.604;2023-03-18T01:25:44;9.70;99.90
41344;DHT22;27089;50.022;7.604;2023-03-18T01:28:12;9.70;99.90
41344;DHT22;27089;50.022;7.604;2023-03-18T01:30:39;9.70;99.90
41344;DHT22;27089;50.022;7.604;2023-03-18T01:33:07;9.70;99.90
41344;DHT22;27089;50.022;7.604;2023-03-18T01:35:35;9.70;99.90
41344;DHT22;27089;50.022;7.604;2023-03-18T01:38:03;9.70;99.90
41344;DHT22;27089;50.022;7.604;2023-03-18T01:40:33;9.70;99.90
41344;DHT22;27089;50.022;7.604;2023-03-18T01:43:12;9.80;99.90
41344;DHT22;27089;50.022;7.604;2023-03-18T01:45:41;9.80;99.90
41344;DHT22;27089;50.022;7.604;2023-03-18T01:48:13;9.70;99.90
41344;DHT22;27089;50.022;7.604;2023-03-18T01:50:41;9.60;99.90
41344;DHT22;27089;50.022;7.604;2023-03-18T01:53:11;9.60;99.90
41344;DHT22;27089;50.022;7.604;2023-03-18T01:55:41;9.60;99.90
41344;DHT22;27089;50.022;7.604;2023-03-18T01:58:12;9.70;99.90
41344;DHT22;27089;50.022;7.604;2023-03-18T02:00:45;9.70;99.90
41344;DHT22;27089;50.022;7.604;2023-03-18T02:03:14;9.70;99.90
41344;DHT22;27089;50.022;7.604;2023-03-18T02:05:41;9.80;99.90
41344;DHT22;27089;50.022;7.604;2023-03-18T02:08:09;9.80;99.90
41344;DHT22;27089;50.022;7.604;2023-03-18T02:10:36;9.80;99.90
41344;DHT22;27089;50.022;7.604;2023-03-18T02:13:09;9.80;99.90
41344;DHT22;27089;50.022;7.604;2023-03-18T02:15:40;9.80;99.90
41344;DHT22;27089;50.022;7.604;2023-03-18T02:18:12;9.80;99.90
41344;DHT22;27089;50.022;7.604;2023-03-18T02:20:52;9.70;99.90
41344;DHT22;27089;50.022;7.604;2023-03-18T02:23:28;9.70;99.90
41344;DHT22;27089;50.022;7.604;2023-03-18T02:26:02;9.60;99.90
41344;DHT22;27089;50.022;7.604;2023-03-18T02:28:34;9.60;99.90
41344;DHT22;27089;50.022;7.604;2023-03-18T02:31:07;9.60;99.90
41344;DHT22;27089;50.022;7.604;2023-03-18T02:33:38;9.50;99.90
41344;DHT22;27089;50.022;7.604;2023-03-18T02:36:10;9.50;99.90
41344;DHT22;27089;50.022;7.604;2023-03-18T02:38:40;9.50;99.90
41344;DHT22;27089;50.022;7.604;2023-03-18T02:41:14;9.40;99.90
41344;DHT22;27089;50.022;7.604;2023-03-18T02:43:44;9.40;99.90
41344;DHT22;27089;50.022;7.604;2023-03-18T02:46:28;9.40;99.90
41344;DHT22;27089;50.022;7.604;2023-03-18T02:48:57;9.40;99.90
41344;DHT22;27089;50.022;7.604;2023-03-18T02:51:25;9.40;99.90
41344;DHT22;27089;50.022;7.604;2023-03-18T02:53:54;9.50;99.90
41344;DHT22;27089;50.022;7.604;2023-03-18T02:56:24;9.60;99.90
41344;DHT22;27089;50.022;7.604;2023-03-18T02:58:52;9.60;99.90
41344;DHT22;27089;50.022;7.604;2023-03-18T03:01:20;9.60;99.90
41344;DHT22;27089;50.022;7.604;2023-03-18T03:03:47;9.60;99.90
41344;DHT22;27089;50.022;7.604;2023-03-18T03:06:14;9.60;99.90
41344;DHT22;27089;50.022;7.604;2023-03-18T03:08:41;9.50;99.90
41344;DHT22;27089;50.022;7.604;2023-03-18T03:11:09;9.60;99.90
41344;DHT22;27089;50.022;7.604;2023-03-18T03:13:37;9.50;99.90
41344;DHT22;27089;50.022;7.604;2023-03-18T03:16:07;9.50;99.90
41344;DHT22;27089;50.022;7.604;2023-03-18T03:18:35;9.50;99.90
41344;DHT22;27089;50.022;7.604;2023-03-18T03:21:02;9.50;99.90
41344;DHT22;27089;50.022;7.604;2023-03-18T03:23:29;9.50;99.90
41344;DHT22;27089;50.022;7.604;2023-03-18T03:25:57;9.40;99.90
41344;DHT22;27089;50.022;7.604;2023-03-18T03:28:24;9.40;99.90
41344;DHT22;27089;50.022;7.604;2023-03-18T03:30:51;9.20;99.90
41344;DHT22;27089;50.022;7.604;2023-03-18T03:33:20;9.10;99.90
41344;DHT22;27089;50.022;7.604;2023-03-18T03:35:47;9.00;99.90
41344;DHT22;27089;50.022;7.604;2023-03-18T03:38:14;8.90;99.90
41344;DHT22;27089;50.022;7.604;2023-03-18T03:40:41;8.80;99.90
41344;DHT22;27089;50.022;7.604;2023-03-18T03:43:11;8.70;99.90
41344;DHT22;27089;50.022;7.604;2023-03-18T03:45:38;8.60;99.90
41344;DHT22;27089;50.022;7.604;2023-03-18T03:48:06;8.60;99.90
41344;DHT22;27089;50.022;7.604;2023-03-18T03:50:34;8.50;99.90
41344;DHT22;27089;50.022;7.604;2023-03-18T03:53:02;8.50;99.90
41344;DHT22;27089;50.022;7.604;2023-03-18T03:55:29;8.60;99.90
41344;DHT22;27089;50.022;7.604;2023-03-18T03:57:56;8.60;99.90
41344;DHT22;27089;50.022;7.604;2023-03-18T04:00:24;8.60;99.90
41344;DHT22;27089;50.022;7.604;2023-03-18T04:02:52;8.70;99.90
41344;DHT22;27089;50.022;7.604;2023-03-18T04:05:21;8.70;99.90
41344;DHT22;27089;50.022;7.604;2023-03-18T04:07:50;8.70;99.90
41344;DHT22;27089;50.022;7.604;2023-03-18T04:10:19;8.70;99.90
41344;DHT22;27089;50.022;7.604;2023-03-18T04:12:47;8.70;99.90
41344;DHT22;27089;50.022;7.604;2023-03-18T04:15:16;8.60;99.90
41344;DHT22;27089;50.022;7.604;2023-03-18T04:17:44;8.60;99.90
41344;DHT22;27089;50.022;7.604;2023-03-18T04:20:12;8.50;99.90
41344;DHT22;27089;50.022;7.604;2023-03-18T04:22:39;8.50;99.90
41344;DHT22;27089;50.022;7.604;2023-03-18T04:25:08;8.50;99.90
41344;DHT22;27089;50.022;7.604;2023-03-18T04:27:37;8.50;99.90
41344;DHT22;27089;50.022;7.604;2023-03-18T04:30:05;8.40;99.90
41344;DHT22;27089;50.022;7.604;2023-03-18T04:32:33;8.30;99.90
41344;DHT22;27089;50.022;7.604;2023-03-18T04:35:00;8.30;99.90
41344;DHT22;27089;50.022;7.604;2023-03-18T04:37:27;8.30;99.90
41344;DHT22;27089;50.022;7.604;2023-03-18T04:39:54;8.20;99.90
41344;DHT22;27089;50.022;7.604;2023-03-18T04:42:24;8.20;99.90
41344;DHT22;27089;50.022;7.604;2023-03-18T04:44:51;8.10;99.90
41344;DHT22;27089;50.022;7.604;2023-03-18T04:47:18;8.00;99.90
41344;DHT22;27089;50.022;7.604;2023-03-18T04:49:45;7.90;99.90
41344;DHT22;27089;50.022;7.604;2023-03-18T04:52:12;7.80;99.90
41344;DHT22;27089;50.022;7.604;2023-03-18T04:54:39;7.70;99.90
41344;DHT22;27089;50.022;7.604;2023-03-18T04:57:07;7.60;99.90
41344;DHT22;27089;50.022;7.604;2023-03-18T04:59:36;7.60;99.90
41344;DHT22;27089;50.022;7.604;2023-03-18T05:02:03;7.50;99.90
41344;DHT22;27089;50.022;7.604;2023-03-18T05:04:30;7.50;99.90
41344;DHT22;27089;50.022;7.604;2023-03-18T05:06:58;7.40;99.90
41344;DHT22;27089;50.022;7.604;2023-03-18T05:09:25;7.30;99.90
41344;DHT22;27089;50.022;7.604;2023-03-18T05:11:52;7.30;99.90
41344;DHT22;27089;50.022;7.604;2023-03-18T05:14:19;7.20;99.90
41344;DHT22;27089;50.022;7.604;2023-03-18T05:16:47;7.20;99.90
41344;DHT22;27089;50.022;7.604;2023-03-18T05:19:14;7.10;99.90
41344;DHT22;27089;50.022;7.604;2023-03-18T05:21:41;7.10;99.90
41344;DHT22;27089;50.022;7.604;2023-03-18T05:24:08;7.00;99.90
41344;DHT22;27089;50.022;7.604;2023-03-18T05:26:36;7.00;99.90
41344;DHT22;27089;50.022;7.604;2023-03-18T05:29:03;6.90;99.90
41344;DHT22;27089;50.022;7.604;2023-03-18T05:31:30;6.90;99.90
41344;DHT22;27089;50.022;7.604;2023-03-18T05:33:59;6.90;99.90
41344;DHT22;27089;50.022;7.604;2023-03-18T05:36:26;6.90;99.90
41344;DHT22;27089;50.022;7.604;2023-03-18T05:38:54;6.90;99.90
41344;DHT22;27089;50.022;7.604;2023-03-18T05:41:21;6.90;99.90
41344;DHT22;27089;50.022;7.604;2023-03-18T05:43:49;6.90;99.90
41344;DHT22;27089;50.022;7.604;2023-03-18T05:46:16;6.90;99.90
41344;DHT22;27089;50.022;7.604;2023-03-18T05:48:46;6.80;99.90
41344;DHT22;27089;50.022;7.604;2023-03-18T05:51:14;6.60;99.90
41344;DHT22;27089;50.022;7.604;2023-03-18T05:53:41;6.40;99.90
41344;DHT22;27089;50.022;7.604;2023-03-18T05:56:08;6.30;99.90
41344;DHT22;27089;50.022;7.604;2023-03-18T05:58:36;6.20;99.90
41344;DHT22;27089;50.022;7.604;2023-03-18T06:01:05;6.30;99.90
41344;DHT22;27089;50.022;7.604;2023-03-18T06:03:32;6.40;99.90
41344;DHT22;27089;50.022;7.604;2023-03-18T06:06:00;6.50;99.90
41344;DHT22;27089;50.022;7.604;2023-03-18T06:08:29;6.60;99.90
41344;DHT22;27089;50.022;7.604;2023-03-18T06:10:56;6.70;99.90
41344;DHT22;27089;50.022;7.604;2023-03-18T06:13:23;7.70;99.90
41344;DHT22;27089;50.022;7.604;2023-03-18T06:15:56;8.50;99.90
41344;DHT22;27089;50.022;7.604;2023-03-18T06:18:23;8.80;99.90
41344;DHT22;27089;50.022;7.604;2023-03-18T06:20:53;8.80;99.90
41344;DHT22;27089;50.022;7.604;2023-03-18T06:23:20;9.10;99.90
41344;DHT22;27089;50.022;7.604;2023-03-18T06:25:49;9.50;99.90
41344;DHT22;27089;50.022;7.604;2023-03-18T06:28:16;10.90;99.90
41344;DHT22;27089;50.022;7.604;2023-03-18T06:30:43;12.50;99.90
41344;DHT22;27089;50.022;7.604;2023-03-18T06:33:10;14.00;99.90
41344;DHT22;27089;50.022;7.604;2023-03-18T06:35:37;13.60;99.90
41344;DHT22;27089;50.022;7.604;2023-03-18T06:38:05;13.00;99.90
41344;DHT22;27089;50.022;7.604;2023-03-18T06:40:34;13.90;99.90
41344;DHT22;27089;50.022;7.604;2023-03-18T06:43:02;15.40;99.90
41344;DHT22;27089;50.022;7.604;2023-03-18T06:45:29;16.80;99.90
41344;DHT22;27089;50.022;7.604;2023-03-18T06:47:56;18.00;99.90
41344;DHT22;27089;50.022;7.604;2023-03-18T06:50:25;18.90;99.90
41344;DHT22;27089;50.022;7.604;2023-03-18T06:52:52;19.50;99.90
41344;DHT22;27089;50.022;7.604;2023-03-18T06:55:19;20.10;99.90
41344;DHT22;27089;50.022;7.604;2023-03-18T06:57:46;20.60;99.90
41344;DHT22;27089;50.022;7.604;2023-03-18T07:00:17;21.30;99.90
41344;DHT22;27089;50.022;7.604;2023-03-18T07:02:46;21.60;99.90
41344;DHT22;27089;50.022;7.604;2023-03-18T07:05:13;18.90;99.90
41344;DHT22;27089;50.022;7.604;2023-03-18T07:07:42;16.80;99.90
41344;DHT22;27089;50.022;7.604;2023-03-18T07:10:17;16.00;99.90
41344;DHT22;27089;50.022;7.604;2023-03-18T07:12:45;15.80;99.90
41344;DHT22;27089;50.022;7.604;2023-03-18T07:15:15;15.00;99.90
41344;DHT22;27089;50.022;7.604;2023-03-18T07:17:42;15.30;99.90
41344;DHT22;27089;50.022;7.604;2023-03-18T07:20:10;15.40;99.90
41344;DHT22;27089;50.022;7.604;2023-03-18T07:22:38;16.70;99.90
41344;DHT22;27089;50.022;7.604;2023-03-18T07:25:07;19.70;99.90
41344;DHT22;27089;50.022;7.604;2023-03-18T07:27:34;22.20;99.90
41344;DHT22;27089;50.022;7.604;2023-03-18T07:30:02;24.40;99.90
41344;DHT22;27089;50.022;7.604;2023-03-18T07:32:30;25.30;97.30
41344;DHT22;27089;50.022;7.604;2023-03-18T07:34:57;26.10;93.30
41344;DHT22;27089;50.022;7.604;2023-03-18T07:37:24;26.70;90.10
41344;DHT22;27089;50.022;7.604;2023-03-18T07:39:52;27.20;86.80
41344;DHT22;27089;50.022;7.604;2023-03-18T07:42:19;27.50;82.90
41344;DHT22;27089;50.022;7.604;2023-03-18T07:44:46;27.60;79.10
41344;DHT22;27089;50.022;7.604;2023-03-18T07:47:12;27.60;77.60
41344;DHT22;27089;50.022;7.604;2023-03-18T07:49:41;27.70;75.60
41344;DHT22;27089;50.022;7.604;2023-03-18T07:52:09;27.80;75.50
41344;DHT22;27089;50.022;7.604;2023-03-18T07:54:37;28.20;73.20
41344;DHT22;27089;50.022;7.604;2023-03-18T07:57:04;28.60;72.70
41344;DHT22;27089;50.022;7.604;2023-03-18T07:59:31;29.10;69.90
41344;DHT22;27089;50.022;7.604;2023-03-18T08:01:58;29.00;68.70
41344;DHT22;27089;50.022;7.604;2023-03-18T08:04:26;29.00;68.30
41344;DHT22;27089;50.022;7.604;2023-03-18T08:06:54;29.20;68.60
41344;DHT22;27089;50.022;7.604;2023-03-18T08:09:22;29.20;67.50
41344;DHT22;27089;50.022;7.604;2023-03-18T08:11:49;29.50;67.00
41344;DHT22;27089;50.022;7.604;2023-03-18T08:14:16;29.60;66.00
41344;DHT22;27089;50.022;7.604;2023-03-18T08:16:43;29.90;62.30
41344;DHT22;27089;50.022;7.604;2023-03-18T08:19:10;30.20;62.60
41344;DHT22;27089;50.022;7.604;2023-03-18T08:21:37;30.00;61.30
41344;DHT22;27089;50.022;7.604;2023-03-18T08:24:06;30.30;61.70
41344;DHT22;27089;50.022;7.604;2023-03-18T08:26:34;30.30;61.00
41344;DHT22;27089;50.022;7.604;2023-03-18T08:29:02;29.80;60.50
41344;DHT22;27089;50.022;7.604;2023-03-18T08:31:29;28.80;61.10
41344;DHT22;27089;50.022;7.604;2023-03-18T08:33:56;28.30;62.70
41344;DHT22;27089;50.022;7.604;2023-03-18T08:36:25;28.40;63.30
41344;DHT22;27089;50.022;7.604;2023-03-18T08:38:53;27.70;64.20
41344;DHT22;27089;50.022;7.604;2023-03-18T08:41:22;27.20;65.70
41344;DHT22;27089;50.022;7.604;2023-03-18T08:43:50;27.60;66.00
41344;DHT22;27089;50.022;7.604;2023-03-18T08:46:20;27.80;65.10
41344;DHT22;27089;50.022;7.604;2023-03-18T08:48:46;27.20;65.70
41344;DHT22;27089;50.022;7.604;2023-03-18T08:51:14;26.80;67.40
41344;DHT22;27089;50.022;7.604;2023-03-18T08:53:41;26.60;69.30
41344;DHT22;27089;50.022;7.604;2023-03-18T08:56:08;26.70;68.20
41344;DHT22;27089;50.022;7.604;2023-03-18T08:58:36;26.60;68.80
41344;DHT22;27089;50.022;7.604;2023-03-18T09:01:04;26.10;69.60
41344;DHT22;27089;50.022;7.604;2023-03-18T09:03:31;25.80;68.00
41344;DHT22;27089;50.022;7.604;2023-03-18T09:05:58;25.30;67.80
41344;DHT22;27089;50.022;7.604;2023-03-18T09:08:25;24.90;68.30
41344;DHT22;27089;50.022;7.604;2023-03-18T09:10:54;24.90;68.90
41344;DHT22;27089;50.022;7.604;2023-03-18T09:13:21;24.90;72.00
41344;DHT22;27089;50.022;7.604;2023-03-18T09:15:50;24.90;72.60
41344;DHT22;27089;50.022;7.604;2023-03-18T09:18:17;24.10;72.80
41344;DHT22;27089;50.022;7.604;2023-03-18T09:20:44;23.60;75.10
41344;DHT22;27089;50.022;7.604;2023-03-18T09:23:13;23.00;76.90
41344;DHT22;27089;50.022;7.604;2023-03-18T09:25:43;22.40;81.50
41344;DHT22;27089;50.022;7.604;2023-03-18T09:28:11;22.10;82.90
41344;DHT22;27089;50.022;7.604;2023-03-18T09:30:38;21.60;86.40
41344;DHT22;27089;50.022;7.604;2023-03-18T09:33:08;21.50;87.50
41344;DHT22;27089;50.022;7.604;2023-03-18T09:35:37;21.20;90.00
41344;DHT22;27089;50.022;7.604;2023-03-18T09:38:05;20.90;90.70
41344;DHT22;27089;50.022;7.604;2023-03-18T09:40:34;20.80;91.80
41344;DHT22;27089;50.022;7.604;2023-03-18T09:43:13;20.70;92.30
41344;DHT22;27089;50.022;7.604;2023-03-18T09:45:49;20.60;93.40
41344;DHT22;27089;50.022;7.604;2023-03-18T09:51:33;20.10;96.30
41344;DHT22;27089;50.022;7.604;2023-03-18T09:54:07;19.70;96.00
41344;DHT22;27089;50.022;7.604;2023-03-18T09:56:38;19.40;98.70
41344;DHT22;27089;50.022;7.604;2023-03-18T09:59:15;19.30;99.10
41344;DHT22;27089;50.022;7.604;2023-03-18T10:01:43;19.30;99.30
41344;DHT22;27089;50.022;7.604;2023-03-18T10:04:15;19.20;99.90
41344;DHT22;27089;50.022;7.604;2023-03-18T10:06:45;19.40;99.90
41344;DHT22;27089;50.022;7.604;2023-03-18T10:09:18;19.40;99.90
41344;DHT22;27089;50.022;7.604;2023-03-18T10:11:47;19.40;99.90
41344;DHT22;27089;50.022;7.604;2023-03-18T10:14:33;19.50;99.90
41344;DHT22;27089;50.022;7.604;2023-03-18T10:17:10;19.60;99.90
41344;DHT22;27089;50.022;7.604;2023-03-18T10:19:44;19.70;99.90
41344;DHT22;27089;50.022;7.604;2023-03-18T10:25:09;19.90;99.90
41344;DHT22;27089;50.022;7.604;2023-03-18T10:27:48;20.40;99.90
41344;DHT22;27089;50.022;7.604;2023-03-18T10:30:30;20.90;98.90
41344;DHT22;27089;50.022;7.604;2023-03-18T10:33:09;21.20;97.40
41344;DHT22;27089;50.022;7.604;2023-03-18T10:35:44;21.00;97.00
41344;DHT22;27089;50.022;7.604;2023-03-18T10:38:18;20.80;97.30
41344;DHT22;27089;50.022;7.604;2023-03-18T10:40:48;20.70;98.50
41344;DHT22;27089;50.022;7.604;2023-03-18T10:43:17;20.50;99.70
41344;DHT22;27089;50.022;7.604;2023-03-18T10:45:46;20.30;99.30
41344;DHT22;27089;50.022;7.604;2023-03-18T10:48:18;20.30;99.70
41344;DHT22;27089;50.022;7.604;2023-03-18T10:50:53;20.40;99.90
41344;DHT22;27089;50.022;7.604;2023-03-18T10:53:27;20.60;99.90
41344;DHT22;27089;50.022;7.604;2023-03-18T10:56:04;20.40;96.90
41344;DHT22;27089;50.022;7.604;2023-03-18T10:58:33;20.10;98.80
41344;DHT22;27089;50.022;7.604;2023-03-18T11:01:00;20.00;99.90
41344;DHT22;27089;50.022;7.604;2023-03-18T11:03:30;19.90;99.50
41344;DHT22;27089;50.022;7.604;2023-03-18T11:06:01;19.70;99.90
41344;DHT22;27089;50.022;7.604;2023-03-18T11:08:33;19.70;99.90
41344;DHT22;27089;50.022;7.604;2023-03-18T11:11:18;19.80;99.90
41344;DHT22;27089;50.022;7.604;2023-03-18T11:13:46;19.70;99.90
41344;DHT22;27089;50.022;7.604;2023-03-18T11:16:35;19.60;99.90
41344;DHT22;27089;50.022;7.604;2023-03-18T11:19:14;19.50;99.90
41344;DHT22;27089;50.022;7.604;2023-03-18T11:21:46;19.50;99.90
41344;DHT22;27089;50.022;7.604;2023-03-18T11:24:25;19.50;99.90
41344;DHT22;27089;50.022;7.604;2023-03-18T11:27:01;19.30;99.90
41344;DHT22;27089;50.022;7.604;2023-03-18T11:29:30;19.30;99.90
41344;DHT22;27089;50.022;7.604;2023-03-18T11:31:59;19.30;99.90
41344;DHT22;27089;50.022;7.604;2023-03-18T11:34:29;19.30;99.90
41344;DHT22;27089;50.022;7.604;2023-03-18T11:36:58;19.30;99.90
41344;DHT22;27089;50.022;7.604;2023-03-18T11:39:29;19.40;99.90
41344;DHT22;27089;50.022;7.604;2023-03-18T11:41:57;19.30;99.90
41344;DHT22;27089;50.022;7.604;2023-03-18T11:44:28;19.30;99.90
41344;DHT22;27089;50.022;7.604;2023-03-18T11:47:01;19.10;99.90
41344;DHT22;27089;50.022;7.604;2023-03-18T11:49:29;18.90;99.90
41344;DHT22;27089;50.022;7.604;2023-03-18T11:52:11;18.80;99.90
41344;DHT22;27089;50.022;7.604;2023-03-18T11:54:54;18.60;99.90
41344;DHT22;27089;50.022;7.604;2023-03-18T11:57:31;18.40;99.90
41344;DHT22;27089;50.022;7.604;2023-03-18T12:00:13;18.40;99.90
41344;DHT22;27089;50.022;7.604;2023-03-18T12:03:03;18.40;99.90
41344;DHT22;27089;50.022;7.604;2023-03-18T12:05:46;18.30;99.90
41344;DHT22;27089;50.022;7.604;2023-03-18T12:08:19;18.30;99.90
41344;DHT22;27089;50.022;7.604;2023-03-18T12:10:53;18.20;99.90
41344;DHT22;27089;50.022;7.604;2023-03-18T12:13:34;18.20;99.90
41344;DHT22;27089;50.022;7.604;2023-03-18T12:16:12;18.20;99.90
41344;DHT22;27089;50.022;7.604;2023-03-18T12:18:55;18.30;99.90
41344;DHT22;27089;50.022;7.604;2023-03-18T12:21:46;18.30;99.80
41344;DHT22;27089;50.022;7.604;2023-03-18T12:24:48;18.40;99.90
41344;DHT22;27089;50.022;7.604;2023-03-18T12:27:26;18.60;99.90
41344;DHT22;27089;50.022;7.604;2023-03-18T12:30:10;18.60;98.20
41344;DHT22;27089;50.022;7.604;2023-03-18T12:32:44;18.70;99.60
41344;DHT22;27089;50.022;7.604;2023-03-18T12:35:28;18.70;99.30
41344;DHT22;27089;50.022;7.604;2023-03-18T12:38:23;18.80;98.70
41344;DHT22;27089;50.022;7.604;2023-03-18T12:41:00;18.50;98.10
41344;DHT22;27089;50.022;7.604;2023-03-18T12:43:37;18.30;98.20
41344;DHT22;27089;50.022;7.604;2023-03-18T12:46:14;18.10;97.80
41344;DHT22;27089;50.022;7.604;2023-03-18T12:48:49;18.00;98.30
41344;DHT22;27089;50.022;7.604;2023-03-18T12:51:21;18.00;99.30
41344;DHT22;27089;50.022;7.604;2023-03-18T12:53:53;18.00;99.90
41344;DHT22;27089;50.022;7.604;2023-03-18T12:56:23;18.00;99.90
41344;DHT22;27089;50.022;7.604;2023-03-18T12:58:54;18.10;99.90
41344;DHT22;27089;50.022;7.604;2023-03-18T13:01:29;18.10;99.90
41344;DHT22;27089;50.022;7.604;2023-03-18T13:04:02;18.20;99.90
41344;DHT22;27089;50.022;7.604;2023-03-18T13:06:36;18.10;99.90
41344;DHT22;27089;50.022;7.604;2023-03-18T13:09:09;18.00;99.20
41344;DHT22;27089;50.022;7.604;2023-03-18T13:11:56;17.90;98.80
41344;DHT22;27089;50.022;7.604;2023-03-18T13:14:34;17.70;99.90
41344;DHT22;27089;50.022;7.604;2023-03-18T13:17:06;17.60;99.20
41344;DHT22;27089;50.022;7.604;2023-03-18T13:19:37;17.60;99.50
41344;DHT22;27089;50.022;7.604;2023-03-18T13:22:15;17.50;98.30
41344;DHT22;27089;50.022;7.604;2023-03-18T13:24:54;17.40;99.90
41344;DHT22;27089;50.022;7.604;2023-03-18T13:27:52;17.60;99.90
41344;DHT22;27089;50.022;7.604;2023-03-18T13:30:29;18.00;99.90
41344;DHT22;27089;50.022;7.604;2023-03-18T13:33:18;18.30;99.90
41344;DHT22;27089;50.022;7.604;2023-03-18T13:39:07;18.40;98.20
41344;DHT22;27089;50.022;7.604;2023-03-18T13:42:15;18.40;96.00
41344;DHT22;27089;50.022;7.604;2023-03-18T13:44:48;18.30;96.90
41344;DHT22;27089;50.022;7.604;2023-03-18T13:47:21;18.30;96.60
41344;DHT22;27089;50.022;7.604;2023-03-18T13:49:59;18.30;97.10
41344;DHT22;27089;50.022;7.604;2023-03-18T13:52:33;18.40;98.00
41344;DHT22;27089;50.022;7.604;2023-03-18T13:55:03;18.40;95.80
41344;DHT22;27089;50.022;7.604;2023-03-18T13:57:35;18.30;98.00
41344;DHT22;27089;50.022;7.604;2023-03-18T14:00:28;18.20;99.50
41344;DHT22;27089;50.022;7.604;2023-03-18T14:03:16;18.20;99.30
41344;DHT22;27089;50.022;7.604;2023-03-18T14:05:45;18.10;99.90
41344;DHT22;27089;50.022;7.604;2023-03-18T14:08:44;18.20;99.90
41344;DHT22;27089;50.022;7.604;2023-03-18T14:11:42;18.30;99.90
41344;DHT22;27089;50.022;7.604;2023-03-18T14:14:39;18.30;98.30
41344;DHT22;27089;50.022;7.604;2023-03-18T14:17:20;18.20;99.20
41344;DHT22;27089;50.022;7.604;2023-03-18T14:19:53;18.20;99.30
41344;DHT22;27089;50.022;7.604;2023-03-18T14:22:24;18.20;99.30
41344;DHT22;27089;50.022;7.604;2023-03-18T14:25:16;18.20;99.60
41344;DHT22;27089;50.022;7.604;2023-03-18T14:27:45;18.20;98.50
41344;DHT22;27089;50.022;7.604;2023-03-18T14:30:43;18.30;99.10
41344;DHT22;27089;50.022;7.604;2023-03-18T14:33:30;18.30;97.00
41344;DHT22;27089;50.022;7.604;2023-03-18T14:36:06;18.10;98.30
41344;DHT22;27089;50.022;7.604;2023-03-18T14:38:37;18.00;99.30
41344;DHT22;27089;50.022;7.604;2023-03-18T14:41:15;17.90;99.90
41344;DHT22;27089;50.022;7.604;2023-03-18T14:43:50;17.80;99.90
41344;DHT22;27089;50.022;7.604;2023-03-18T14:46:23;17.50;99.90
41344;DHT22;27089;50.022;7.604;2023-03-18T14:48:55;17.40;99.90
41344;DHT22;27089;50.022;7.604;2023-03-18T14:51:26;17.40;99.90
41344;DHT22;27089;50.022;7.604;2023-03-18T14:54:02;17.30;99.90
41344;DHT22;27089;50.022;7.604;2023-03-18T14:56:35;17.20;99.90
41344;DHT22;27089;50.022;7.604;2023-03-18T14:59:04;17.10;99.90
41344;DHT22;27089;50.022;7.604;2023-03-18T15:01:35;17.10;99.90
41344;DHT22;27089;50.022;7.604;2023-03-18T15:04:03;17.20;99.90
41344;DHT22;27089;50.022;7.604;2023-03-18T15:06:32;17.20;99.90
41344;DHT22;27089;50.022;7.604;2023-03-18T15:09:02;17.20;99.90
41344;DHT22;27089;50.022;7.604;2023-03-18T15:11:32;17.30;99.90
41344;DHT22;27089;50.022;7.604;2023-03-18T15:14:09;17.20;99.90
41344;DHT22;27089;50.022;7.604;2023-03-18T15:16:37;17.20;99.90
41344;DHT22;27089;50.022;7.604;2023-03-18T15:19:04;17.10;99.90
41344;DHT22;27089;50.022;7.604;2023-03-18T15:21:34;17.00;99.90
41344;DHT22;27089;50.022;7.604;2023-03-18T15:24:04;16.90;99.90
41344;DHT22;27089;50.022;7.604;2023-03-18T15:26:34;16.70;99.90
41344;DHT22;27089;50.022;7.604;2023-03-18T15:29:20;16.70;99.90
41344;DHT22;27089;50.022;7.604;2023-03-18T15:31:49;16.70;99.90
41344;DHT22;27089;50.022;7.604;2023-03-18T15:34:19;16.60;99.90
41344;DHT22;27089;50.022;7.604;2023-03-18T15:36:53;16.70;99.90
41344;DHT22;27089;50.022;7.604;2023-03-18T15:39:28;16.70;99.90
41344;DHT22;27089;50.022;7.604;2023-03-18T15:41:59;16.60;99.90
41344;DHT22;27089;50.022;7.604;2023-03-18T15:44:29;16.60;99.90
41344;DHT22;27089;50.022;7.604;2023-03-18T15:47:04;16.50;99.90
41344;DHT22;27089;50.022;7.604;2023-03-18T15:49:32;16.50;99.90
41344;DHT22;27089;50.022;7.604;2023-03-18T15:52:01;16.40;99.90
41344;DHT22;27089;50.022;7.604;2023-03-18T15:54:36;16.40;99.90
41344;DHT22;27089;50.022;7.604;2023-03-18T15:57:10;16.30;99.90
41344;DHT22;27089;50.022;7.604;2023-03-18T15:59:38;16.30;99.90
41344;DHT22;27089;50.022;7.604;2023-03-18T16:02:10;16.20;99.90
41344;DHT22;27089;50.022;7.604;2023-03-18T16:04:38;16.10;99.90
41344;DHT22;27089;50.022;7.604;2023-03-18T16:07:14;16.10;99.90
41344;DHT22;27089;50.022;7.604;2023-03-18T16:09:42;16.10;99.90
41344;DHT22;27089;50.022;7.604;2023-03-18T16:12:15;16.00;99.90